createdAt,value
2023-02-11T00:00:05.301Z,94.04
2023-02-11T00:00:42.866Z,93.96
2023-02-11T00:01:32.650Z,94.45
2023-02-11T00:02:05.310Z,94.01
2023-02-11T00:02:41.066Z,94.03
2023-02-11T00:03:14.938Z,94.11
2023-02-11T00:03:46.580Z,94.20
2023-02-11T00:04:19.443Z,94.28
2023-02-11T00:04:55.858Z,94.12
2023-02-11T00:05:27.339Z,94.27
2023-02-11T00:06:05.020Z,94.43
2023-02-11T00:07:25.803Z,94.09
2023-02-11T00:07:57.280Z,94.14
2023-02-11T00:08:31.329Z,94.30
2023-02-11T00:09:03.160Z,94.65
2023-02-11T00:09:37.503Z,94.32
2023-02-11T00:10:09.451Z,94.15
2023-02-11T00:10:40.980Z,94.22
2023-02-11T00:11:15.082Z,94.77
2023-02-11T00:11:46.807Z,94.28
2023-02-11T00:12:19.687Z,94.51
2023-02-11T00:12:51.318Z,94.41
2023-02-11T00:13:26.089Z,94.71
2023-02-11T00:14:04.875Z,94.25
2023-02-11T00:14:39.425Z,94.11
2023-02-11T00:15:13.680Z,94.72
2023-02-11T00:15:46.178Z,94.54
2023-02-11T00:16:20.336Z,94.63
2023-02-11T00:16:54.421Z,94.27
2023-02-11T00:17:26.077Z,94.22
2023-02-11T00:17:57.939Z,94.34
2023-02-11T00:18:29.551Z,94.52
2023-02-11T00:19:05.456Z,94.96
2023-02-11T00:19:37.081Z,94.40
2023-02-11T00:20:09.396Z,94.44
2023-02-11T00:20:42.219Z,94.64
2023-02-11T00:21:17.319Z,94.86
2023-02-11T00:21:51.245Z,94.80
2023-02-11T00:22:22.964Z,94.79
2023-02-11T00:22:57.375Z,94.92
2023-02-11T00:23:28.928Z,94.72
2023-02-11T00:24:02.916Z,94.90
2023-02-11T00:24:52.772Z,94.67
2023-02-11T00:25:24.219Z,94.98
2023-02-11T00:25:58.119Z,94.79
2023-02-11T00:26:35.030Z,94.61
2023-02-11T00:27:06.576Z,94.67
2023-02-11T00:27:38.161Z,94.35
2023-02-11T00:28:10.489Z,94.93
2023-02-11T00:28:42.169Z,94.88
2023-02-11T00:29:16.022Z,94.45
2023-02-11T00:29:50.295Z,94.90
2023-02-11T00:30:21.965Z,94.76
2023-02-11T00:30:57.635Z,94.75
2023-02-11T00:31:32.195Z,94.38
2023-02-11T00:32:08.038Z,95.25
2023-02-11T00:32:39.509Z,94.39
2023-02-11T00:33:14.128Z,94.32
2023-02-11T00:33:49.100Z,94.53
2023-02-11T00:34:20.698Z,94.67
2023-02-11T00:34:56.094Z,94.49
2023-02-11T00:35:30.240Z,94.74
2023-02-11T00:36:06.475Z,94.35
2023-02-11T00:36:38.005Z,94.70
2023-02-11T00:37:09.884Z,94.63
2023-02-11T00:37:41.430Z,94.74
2023-02-11T00:38:15.274Z,94.79
2023-02-11T00:38:48.187Z,94.50
2023-02-11T00:39:21.860Z,94.71
2023-02-11T00:39:53.470Z,94.71
2023-02-11T00:40:25.051Z,95.08
2023-02-11T00:40:56.509Z,94.47
2023-02-11T00:41:28.254Z,95.05
2023-02-11T00:42:02.266Z,94.68
2023-02-11T00:42:35.739Z,95.07
2023-02-11T00:43:07.298Z,94.53
2023-02-11T00:43:39.729Z,95.08
2023-02-11T00:44:11.248Z,94.49
2023-02-11T00:44:44.936Z,94.97
2023-02-11T00:45:19.213Z,94.91
2023-02-11T00:45:50.999Z,94.66
2023-02-11T00:46:25.772Z,94.83
2023-02-11T00:46:57.330Z,94.43
2023-02-11T00:48:17.736Z,94.23
2023-02-11T00:48:51.665Z,94.77
2023-02-11T00:49:23.247Z,94.50
2023-02-11T00:49:57.201Z,94.54
2023-02-11T00:50:28.704Z,94.96
2023-02-11T00:51:03.032Z,94.88
2023-02-11T00:51:34.757Z,94.70
2023-02-11T00:52:06.673Z,94.72
2023-02-11T00:52:40.185Z,94.90
2023-02-11T00:53:12.120Z,94.79
2023-02-11T00:53:43.785Z,94.83
2023-02-11T00:54:21.030Z,94.96
2023-02-11T00:54:56.887Z,94.89
2023-02-11T00:55:31.066Z,94.89
2023-02-11T00:56:02.630Z,95.46
2023-02-11T00:56:35.041Z,94.61
2023-02-11T00:57:06.619Z,94.84
2023-02-11T00:57:38.028Z,94.44
2023-02-11T00:58:30.403Z,95.35
2023-02-11T00:59:01.869Z,94.86
2023-02-11T00:59:33.283Z,94.79
2023-02-11T01:00:07.222Z,94.77
2023-02-11T01:00:38.681Z,94.85
2023-02-11T01:01:12.103Z,95.40
2023-02-11T01:01:43.653Z,94.87
2023-02-11T01:02:15.451Z,94.97
2023-02-11T01:02:46.903Z,95.02
2023-02-11T01:03:19.713Z,94.94
2023-02-11T01:03:53.399Z,94.63
2023-02-11T01:04:24.828Z,94.81
2023-02-11T01:04:57.431Z,95.31
2023-02-11T01:05:31.560Z,95.11
2023-02-11T01:06:03.393Z,95.47
2023-02-11T01:06:34.956Z,94.92
2023-02-11T01:07:06.580Z,95.05
2023-02-11T01:07:38.151Z,95.14
2023-02-11T01:08:12.793Z,95.13
2023-02-11T01:08:46.730Z,95.09
2023-02-11T01:09:21.016Z,95.54
2023-02-11T01:09:52.645Z,95.35
2023-02-11T01:10:26.660Z,94.87
2023-02-11T01:11:01.669Z,95.36
2023-02-11T01:11:33.211Z,95.12
2023-02-11T01:12:05.076Z,95.45
2023-02-11T01:12:36.841Z,95.14
2023-02-11T01:13:08.426Z,94.67
2023-02-11T01:13:40.068Z,94.82
2023-02-11T01:14:12.017Z,95.34
2023-02-11T01:14:53.544Z,94.79
2023-02-11T01:15:25.382Z,95.04
2023-02-11T01:15:58.109Z,95.35
2023-02-11T01:16:29.883Z,95.15
2023-02-11T01:17:03.884Z,95.13
2023-02-11T01:17:36.235Z,94.90
2023-02-11T01:18:08.881Z,95.41
2023-02-11T01:18:41.936Z,95.13
2023-02-11T01:19:13.629Z,95.61
2023-02-11T01:19:45.310Z,95.45
2023-02-11T01:20:21.847Z,95.23
2023-02-11T01:20:54.143Z,95.15
2023-02-11T01:21:28.875Z,95.49
2023-02-11T01:22:00.437Z,95.52
2023-02-11T01:22:32.243Z,95.44
2023-02-11T01:23:03.831Z,95.53
2023-02-11T01:23:37.426Z,95.43
2023-02-11T01:24:15.909Z,95.04
2023-02-11T01:24:47.606Z,95.37
2023-02-11T01:25:21.673Z,95.27
2023-02-11T01:25:54.330Z,95.57
2023-02-11T01:26:25.997Z,95.51
2023-02-11T01:26:57.510Z,95.46
2023-02-11T01:27:29.219Z,95.98
2023-02-11T01:28:00.795Z,95.52
2023-02-11T01:28:33.218Z,95.73
2023-02-11T01:29:04.742Z,95.26
2023-02-11T01:29:38.425Z,95.73
2023-02-11T01:30:12.488Z,95.82
2023-02-11T01:30:46.186Z,95.34
2023-02-11T01:31:17.688Z,95.21
2023-02-11T01:31:49.390Z,95.83
2023-02-11T01:32:20.894Z,95.85
2023-02-11T01:32:52.402Z,95.48
2023-02-11T01:33:26.571Z,95.73
2023-02-11T01:33:58.575Z,95.51
2023-02-11T01:34:30.348Z,95.69
2023-02-11T01:35:02.110Z,95.62
2023-02-11T01:35:33.631Z,96.10
2023-02-11T01:36:06.360Z,95.78
2023-02-11T01:36:39.426Z,96.19
2023-02-11T01:37:11.050Z,96.14
2023-02-11T01:37:42.553Z,95.75
2023-02-11T01:38:25.398Z,95.33
2023-02-11T01:38:56.961Z,95.79
2023-02-11T01:39:30.528Z,95.90
2023-02-11T01:40:23.121Z,95.80
2023-02-11T01:41:08.973Z,96.14
2023-02-11T01:41:40.410Z,95.70
2023-02-11T01:42:19.643Z,95.94
2023-02-11T01:42:51.253Z,95.94
2023-02-11T01:43:24.257Z,95.46
2023-02-11T01:43:55.735Z,95.66
2023-02-11T01:44:31.957Z,95.90
2023-02-11T01:45:41.839Z,95.62
2023-02-11T01:46:30.884Z,95.84
2023-02-11T01:47:04.776Z,96.08
2023-02-11T01:47:36.370Z,95.80
2023-02-11T01:48:11.193Z,95.59
2023-02-11T01:48:47.215Z,95.53
2023-02-11T01:49:24.423Z,95.72
2023-02-11T01:49:59.092Z,95.69
2023-02-11T01:50:31.481Z,95.85
2023-02-11T01:52:12.705Z,95.84
2023-02-11T01:52:47.106Z,95.57
2023-02-11T01:53:37.401Z,95.55
2023-02-11T01:54:30.537Z,95.87
2023-02-11T01:55:31.121Z,95.86
2023-02-11T01:56:22.270Z,95.99
2023-02-11T01:57:15.502Z,96.07
2023-02-11T01:57:52.221Z,96.26
2023-02-11T01:58:23.606Z,95.39
2023-02-11T01:59:00.738Z,95.57
2023-02-11T01:59:38.157Z,96.09
2023-02-11T02:00:26.526Z,95.47
2023-02-11T02:00:59.219Z,95.59
2023-02-11T02:01:33.684Z,96.15
2023-02-11T02:02:11.499Z,95.85
2023-02-11T02:03:07.345Z,96.13
2023-02-11T02:03:42.303Z,95.86
2023-02-11T02:04:18.349Z,95.78
2023-02-11T02:04:58.670Z,96.32
2023-02-11T02:05:39.386Z,96.23
2023-02-11T02:06:18.194Z,95.85
2023-02-11T02:06:55.960Z,95.80
2023-02-11T02:07:47.377Z,96.03
2023-02-11T02:08:29.672Z,96.07
2023-02-11T02:09:13.438Z,96.10
2023-02-11T02:09:53.167Z,96.07
2023-02-11T02:10:28.412Z,96.16
2023-02-11T02:11:03.514Z,95.68
2023-02-11T02:11:41.572Z,96.11
2023-02-11T02:12:14.955Z,96.29
2023-02-11T02:13:36.350Z,96.26
2023-02-11T02:14:07.899Z,95.94
2023-02-11T02:14:41.426Z,96.16
2023-02-11T02:15:32.664Z,95.81
2023-02-11T02:16:09.917Z,96.45
2023-02-11T02:16:41.895Z,96.01
2023-02-11T02:17:32.415Z,95.84
2023-02-11T02:18:19.830Z,95.86
2023-02-11T02:19:16.372Z,96.20
2023-02-11T02:20:25.355Z,96.36
2023-02-11T02:21:24.659Z,96.07
2023-02-11T02:22:34.217Z,96.32
2023-02-11T02:23:22.434Z,95.76
2023-02-11T02:24:14.729Z,95.51
2023-02-11T02:25:01.026Z,95.65
2023-02-11T02:25:53.815Z,96.05
2023-02-11T02:26:53.867Z,95.96
2023-02-11T02:27:59.825Z,96.17
2023-02-11T02:28:56.105Z,96.21
2023-02-11T02:29:46.227Z,96.07
2023-02-11T02:30:42.555Z,96.29
2023-02-11T02:31:40.869Z,96.14
2023-02-11T02:32:24.128Z,96.31
2023-02-11T02:33:23.829Z,95.76
2023-02-11T02:34:09.018Z,96.13
2023-02-11T02:34:52.430Z,96.22
2023-02-11T02:35:34.958Z,96.01
2023-02-11T02:36:18.322Z,96.16
2023-02-11T02:37:01.087Z,96.43
2023-02-11T02:37:41.493Z,96.56
2023-02-11T02:38:44.174Z,96.45
2023-02-11T02:39:26.229Z,96.73
2023-02-11T02:40:02.718Z,96.78
2023-02-11T02:40:44.971Z,96.45
2023-02-11T02:41:19.795Z,96.55
2023-02-11T02:42:01.468Z,96.41
2023-02-11T02:42:36.453Z,96.59
2023-02-11T02:43:10.446Z,96.71
2023-02-11T02:43:48.044Z,96.38
2023-02-11T02:44:21.355Z,96.93
2023-02-11T02:44:53.616Z,97.00
2023-02-11T02:45:27.362Z,97.00
2023-02-11T02:46:18.421Z,96.75
2023-02-11T02:46:53.371Z,96.51
2023-02-11T02:47:25.087Z,96.38
2023-02-11T02:47:59.246Z,97.03
2023-02-11T02:48:34.781Z,96.75
2023-02-11T02:49:16.508Z,96.83
2023-02-11T02:49:50.344Z,96.50
2023-02-11T02:50:30.689Z,96.78
2023-02-11T02:51:33.836Z,96.94
2023-02-11T02:52:25.287Z,96.51
2023-02-11T02:54:43.134Z,97.00
2023-02-11T02:55:38.898Z,97.02
2023-02-11T02:56:25.727Z,97.03
2023-02-11T02:57:10.186Z,96.86
2023-02-11T02:58:18.481Z,96.76
2023-02-11T02:59:34.340Z,96.67
2023-02-11T03:00:30.688Z,97.04
2023-02-11T03:01:26.626Z,96.75
2023-02-11T03:02:10.846Z,97.27
2023-02-11T03:03:06.634Z,96.93
2023-02-11T03:03:56.937Z,96.89
2023-02-11T03:04:52.476Z,97.10
2023-02-11T03:05:34.587Z,97.01
2023-02-11T03:06:12.966Z,96.67
2023-02-11T03:06:56.258Z,97.12
2023-02-11T03:07:51.513Z,97.42
2023-02-11T03:08:38.223Z,97.27
2023-02-11T03:09:14.336Z,97.08
2023-02-11T03:09:55.110Z,97.41
2023-02-11T03:10:33.866Z,97.35
2023-02-11T03:11:07.598Z,96.91
2023-02-11T03:11:39.960Z,97.34
2023-02-11T03:12:12.663Z,97.34
2023-02-11T03:12:48.459Z,97.74
2023-02-11T03:13:24.520Z,97.27
2023-02-11T03:14:00.761Z,97.30
2023-02-11T03:14:33.443Z,97.43
2023-02-11T03:15:06.833Z,97.55
2023-02-11T03:15:43.456Z,97.46
2023-02-11T03:16:19.910Z,97.55
2023-02-11T03:16:54.687Z,97.59
2023-02-11T03:17:27.755Z,97.14
2023-02-11T03:18:01.931Z,97.52
2023-02-11T03:18:36.838Z,97.25
2023-02-11T03:19:18.159Z,97.44
2023-02-11T03:19:52.231Z,97.20
2023-02-11T03:20:24.101Z,97.22
2023-02-11T03:20:59.688Z,97.51
2023-02-11T03:21:36.248Z,96.90
2023-02-11T03:22:20.009Z,97.31
2023-02-11T03:23:06.308Z,97.22
2023-02-11T03:23:50.895Z,97.44
2023-02-11T03:24:29.222Z,97.63
2023-02-11T03:25:02.692Z,97.19
2023-02-11T03:25:39.007Z,97.40
2023-02-11T03:27:20.421Z,97.31
2023-02-11T03:28:09.081Z,97.74
2023-02-11T03:29:14.149Z,98.05
2023-02-11T03:29:54.923Z,97.61
2023-02-11T03:30:38.607Z,97.69
2023-02-11T03:31:20.711Z,97.71
2023-02-11T03:32:19.939Z,98.08
2023-02-11T03:32:57.720Z,98.08
2023-02-11T03:33:50.462Z,98.23
2023-02-11T03:34:36.244Z,97.99
2023-02-11T03:35:14.903Z,98.22
2023-02-11T03:35:54.457Z,98.21
2023-02-11T03:36:57.097Z,98.27
2023-02-11T03:37:31.770Z,98.62
2023-02-11T03:38:12.448Z,98.45
2023-02-11T03:38:50.532Z,98.21
2023-02-11T03:39:27.338Z,98.46
2023-02-11T03:40:06.097Z,98.13
2023-02-11T03:40:41.165Z,98.32
2023-02-11T03:41:16.274Z,98.76
2023-02-11T03:41:49.802Z,98.53
2023-02-11T03:42:24.600Z,98.69
2023-02-11T03:43:03.585Z,98.73
2023-02-11T03:43:45.114Z,98.46
2023-02-11T03:44:17.210Z,98.23
2023-02-11T03:44:53.978Z,98.77
2023-02-11T03:45:27.607Z,98.51
2023-02-11T03:46:00.996Z,98.51
2023-02-11T03:46:37.388Z,99.12
2023-02-11T03:47:12.560Z,99.08
2023-02-11T03:47:50.966Z,98.59
2023-02-11T03:48:30.272Z,98.62
2023-02-11T03:49:10.960Z,98.97
2023-02-11T03:49:47.092Z,98.71
2023-02-11T03:50:21.529Z,98.56
2023-02-11T03:50:57.796Z,98.92
2023-02-11T03:51:31.749Z,98.95
2023-02-11T03:52:11.155Z,99.17
2023-02-11T03:52:43.955Z,98.68
2023-02-11T03:53:20.662Z,98.52
2023-02-11T03:53:55.630Z,98.92
2023-02-11T03:54:30.273Z,99.04
2023-02-11T03:55:11.063Z,99.22
2023-02-11T03:55:47.728Z,99.01
2023-02-11T03:56:22.742Z,98.80
2023-02-11T03:56:59.484Z,99.11
2023-02-11T03:57:31.172Z,99.17
2023-02-11T03:58:02.675Z,99.27
2023-02-11T03:58:34.131Z,99.15
2023-02-11T03:59:05.535Z,99.56
2023-02-11T03:59:52.801Z,99.43
2023-02-11T04:00:32.757Z,99.49
2023-02-11T04:01:05.164Z,99.11
2023-02-11T04:01:39.280Z,99.31
2023-02-11T04:02:11.004Z,99.22
2023-02-11T04:02:43.586Z,99.50
2023-02-11T04:03:15.188Z,99.43
2023-02-11T04:03:46.764Z,99.29
2023-02-11T04:04:20.819Z,99.32
2023-02-11T04:04:52.387Z,99.40
2023-02-11T04:05:23.797Z,99.64
2023-02-11T04:05:55.359Z,99.51
2023-02-11T04:06:26.862Z,99.58
2023-02-11T04:06:58.521Z,99.69
2023-02-11T04:07:30.361Z,99.35
2023-02-11T04:08:02.227Z,99.58
2023-02-11T04:08:33.726Z,99.68
2023-02-11T04:09:08.172Z,99.39
2023-02-11T04:09:39.622Z,99.78
2023-02-11T04:10:12.348Z,99.74
2023-02-11T04:10:43.916Z,99.48
2023-02-11T04:11:15.450Z,99.45
2023-02-11T04:11:52.139Z,99.57
2023-02-11T04:12:23.541Z,99.41
2023-02-11T04:12:56.227Z,99.53
2023-02-11T04:13:27.753Z,99.69
2023-02-11T04:13:59.517Z,99.82
2023-02-11T04:14:31.224Z,99.60
2023-02-11T04:15:02.707Z,99.75
2023-02-11T04:15:34.305Z,99.55
2023-02-11T04:16:08.738Z,99.59
2023-02-11T04:16:41.490Z,99.62
2023-02-11T04:17:13.287Z,99.80
2023-02-11T04:17:45.134Z,99.70
2023-02-11T04:18:22.430Z,99.72
2023-02-11T04:19:14.417Z,99.59
2023-02-11T04:19:48.024Z,99.69
2023-02-11T04:20:21.969Z,99.69
2023-02-11T04:20:53.494Z,99.74
2023-02-11T04:21:27.432Z,99.41
2023-02-11T04:21:59.166Z,99.66
2023-02-11T04:22:35.105Z,99.31
2023-02-11T04:23:06.668Z,99.61
2023-02-11T04:23:40.785Z,99.37
2023-02-11T04:24:12.235Z,99.44
2023-02-11T04:24:46.426Z,99.63
2023-02-11T04:25:21.031Z,99.51
2023-02-11T04:25:52.863Z,99.87
2023-02-11T04:26:24.570Z,99.58
2023-02-11T04:26:56.469Z,99.74
2023-02-11T04:27:28.173Z,99.66
2023-02-11T04:27:59.651Z,99.46
2023-02-11T04:28:37.547Z,99.53
2023-02-11T04:29:11.006Z,99.41
2023-02-11T04:29:42.572Z,99.72
2023-02-11T04:30:15.510Z,100.00
2023-02-11T04:30:49.379Z,99.36
2023-02-11T04:31:22.628Z,99.15
2023-02-11T04:31:55.247Z,99.23
2023-02-11T04:32:29.793Z,99.15
2023-02-11T04:33:02.626Z,99.70
2023-02-11T04:33:34.315Z,99.23
2023-02-11T04:34:05.783Z,99.49
2023-02-11T04:34:40.050Z,99.53
2023-02-11T04:35:11.528Z,99.93
2023-02-11T04:35:43.002Z,99.97
2023-02-11T04:36:14.497Z,99.65
2023-02-11T04:36:47.162Z,99.85
2023-02-11T04:37:18.717Z,99.44
2023-02-11T04:37:50.208Z,99.54
2023-02-11T04:38:24.041Z,99.82
2023-02-11T04:38:55.465Z,99.63
2023-02-11T04:39:27.011Z,99.85
2023-02-11T04:39:58.534Z,99.25
2023-02-11T04:40:30.257Z,99.54
2023-02-11T04:41:01.936Z,99.42
2023-02-11T04:41:34.684Z,99.60
2023-02-11T04:42:06.521Z,99.98
2023-02-11T04:42:39.890Z,100.00
2023-02-11T04:43:11.408Z,99.70
2023-02-11T04:43:45.234Z,99.94
2023-02-11T04:44:16.640Z,99.68
2023-02-11T04:44:48.189Z,99.66
2023-02-11T04:45:19.639Z,99.62
2023-02-11T04:45:51.347Z,99.68
2023-02-11T04:46:23.228Z,99.84
2023-02-11T04:46:54.785Z,99.75
2023-02-11T04:47:26.257Z,99.88
2023-02-11T04:48:02.590Z,99.67
2023-02-11T04:48:38.850Z,100.00
2023-02-11T04:49:19.132Z,100.00
2023-02-11T04:49:50.763Z,99.93
2023-02-11T04:50:24.423Z,100.00
2023-02-11T04:50:55.915Z,99.85
2023-02-11T04:51:27.615Z,100.00
2023-02-11T04:52:02.259Z,100.00
2023-02-11T04:52:33.647Z,100.00
2023-02-11T04:53:56.832Z,100.00
2023-02-11T04:54:28.218Z,100.00
2023-02-11T04:55:50.719Z,100.00
2023-02-11T04:56:22.450Z,100.00
2023-02-11T04:56:54.173Z,100.00
2023-02-11T04:57:28.270Z,100.00
2023-02-11T04:57:59.707Z,100.00
2023-02-11T04:58:37.903Z,100.00
2023-02-11T04:59:09.663Z,100.00
2023-02-11T04:59:42.398Z,100.00
2023-02-11T05:00:14.907Z,100.00
2023-02-11T05:00:46.992Z,99.99
2023-02-11T05:01:19.764Z,100.00
2023-02-11T05:01:51.370Z,100.00
2023-02-11T05:02:26.611Z,100.00
2023-02-11T05:02:58.318Z,100.00
2023-02-11T05:03:30.327Z,100.00
2023-02-11T05:04:02.053Z,100.00
2023-02-11T05:04:33.570Z,100.00
2023-02-11T05:05:05.698Z,100.00
2023-02-11T05:05:41.309Z,99.98
2023-02-11T05:06:13.198Z,100.00
2023-02-11T05:06:46.871Z,100.00
2023-02-11T05:07:20.443Z,100.00
2023-02-11T05:07:51.834Z,100.00
2023-02-11T05:08:23.499Z,100.00
2023-02-11T05:08:57.222Z,100.00
2023-02-11T05:09:28.811Z,100.00
2023-02-11T05:10:00.433Z,100.00
2023-02-11T05:10:32.107Z,100.00
2023-02-11T05:11:04.273Z,100.00
2023-02-11T05:11:36.763Z,100.00
2023-02-11T05:12:11.065Z,100.00
2023-02-11T05:12:42.716Z,100.00
2023-02-11T05:13:14.154Z,100.00
2023-02-11T05:13:48.136Z,100.00
2023-02-11T05:14:19.694Z,100.00
2023-02-11T05:14:53.665Z,100.00
2023-02-11T05:15:25.304Z,100.00
2023-02-11T05:15:56.940Z,100.00
2023-02-11T05:16:28.473Z,100.00
2023-02-11T05:17:00.101Z,100.00
2023-02-11T05:17:31.682Z,100.00
2023-02-11T05:18:06.342Z,100.00
2023-02-11T05:18:40.929Z,100.00
2023-02-11T05:19:12.571Z,100.00
2023-02-11T05:19:44.108Z,100.00
2023-02-11T05:20:18.164Z,100.00
2023-02-11T05:20:49.728Z,100.00
2023-02-11T05:21:21.319Z,100.00
2023-02-11T05:22:02.220Z,100.00
2023-02-11T05:22:34.673Z,100.00
2023-02-11T05:23:06.195Z,100.00
2023-02-11T05:23:40.737Z,100.00
2023-02-11T05:24:12.281Z,100.00
2023-02-11T05:24:43.837Z,100.00
2023-02-11T05:25:28.230Z,100.00
2023-02-11T05:26:00.226Z,100.00
2023-02-11T05:26:32.778Z,100.00
2023-02-11T05:27:04.289Z,100.00
2023-02-11T05:27:36.261Z,100.00
2023-02-11T05:28:09.616Z,100.00
2023-02-11T05:28:42.515Z,100.00
2023-02-11T05:29:14.116Z,100.00
2023-02-11T05:29:49.526Z,100.00
2023-02-11T05:30:23.671Z,100.00
2023-02-11T05:30:58.488Z,100.00
2023-02-11T05:31:30.031Z,100.00
2023-02-11T05:32:01.594Z,100.00
2023-02-11T05:32:33.396Z,100.00
2023-02-11T05:33:06.317Z,100.00
2023-02-11T05:33:40.272Z,100.00
2023-02-11T05:34:11.827Z,100.00
2023-02-11T05:34:43.270Z,100.00
2023-02-11T05:35:19.276Z,100.00
2023-02-11T05:35:51.044Z,100.00
2023-02-11T05:36:22.649Z,100.00
2023-02-11T05:36:56.879Z,100.00
2023-02-11T05:37:28.728Z,100.00
2023-02-11T05:38:03.280Z,100.00
2023-02-11T05:38:35.853Z,100.00
2023-02-11T05:39:07.349Z,100.00
2023-02-11T05:39:41.148Z,100.00
2023-02-11T05:40:12.719Z,100.00
2023-02-11T05:40:44.398Z,100.00
2023-02-11T05:41:19.325Z,100.00
2023-02-11T05:41:51.062Z,100.00
2023-02-11T05:42:22.626Z,100.00
2023-02-11T05:42:54.379Z,100.00
2023-02-11T05:43:26.172Z,100.00
2023-02-11T05:43:57.720Z,100.00
2023-02-11T05:44:31.417Z,100.00
2023-02-11T05:45:03.567Z,100.00
2023-02-11T05:45:36.052Z,100.00
2023-02-11T05:46:07.670Z,100.00
2023-02-11T05:46:39.201Z,100.00
2023-02-11T05:47:10.826Z,100.00
2023-02-11T05:47:42.443Z,100.00
2023-02-11T05:48:14.374Z,100.00
2023-02-11T05:48:45.898Z,100.00
2023-02-11T05:49:17.679Z,100.00
2023-02-11T05:49:54.111Z,100.00
2023-02-11T05:50:25.972Z,100.00
2023-02-11T05:50:57.595Z,100.00
2023-02-11T05:51:29.191Z,100.00
2023-02-11T05:52:00.766Z,100.00
2023-02-11T05:52:34.665Z,100.00
2023-02-11T05:53:06.938Z,100.00
2023-02-11T05:53:45.834Z,100.00
2023-02-11T05:54:17.589Z,100.00
2023-02-11T05:54:49.195Z,100.00
2023-02-11T05:55:20.751Z,100.00
2023-02-11T05:55:52.476Z,100.00
2023-02-11T05:56:26.840Z,100.00
2023-02-11T05:57:01.271Z,100.00
2023-02-11T05:57:32.894Z,100.00
2023-02-11T05:58:04.868Z,100.00
2023-02-11T05:58:36.403Z,100.00
2023-02-11T05:59:07.900Z,100.00
2023-02-11T05:59:39.458Z,100.00
2023-02-11T06:00:11.805Z,100.00
2023-02-11T06:00:45.938Z,100.00
2023-02-11T06:01:20.559Z,100.00
2023-02-11T06:01:52.152Z,100.00
2023-02-11T06:02:26.629Z,100.00
2023-02-11T06:03:01.017Z,100.00
2023-02-11T06:03:33.582Z,100.00
2023-02-11T06:04:05.204Z,100.00
2023-02-11T06:04:38.075Z,100.00
2023-02-11T06:05:09.655Z,100.00
2023-02-11T06:05:45.589Z,100.00
2023-02-11T06:06:19.420Z,100.00
2023-02-11T06:06:54.196Z,100.00
2023-02-11T06:07:25.695Z,100.00
2023-02-11T06:08:03.178Z,100.00
2023-02-11T06:08:35.388Z,100.00
2023-02-11T06:09:10.007Z,100.00
2023-02-11T06:09:41.578Z,100.00
2023-02-11T06:10:15.450Z,100.00
2023-02-11T06:10:47.229Z,100.00
2023-02-11T06:11:20.507Z,100.00
2023-02-11T06:11:52.369Z,100.00
2023-02-11T06:12:23.821Z,100.00
2023-02-11T06:12:55.371Z,100.00
2023-02-11T06:13:26.765Z,100.00
2023-02-11T06:13:58.271Z,100.00
2023-02-11T06:14:31.853Z,100.00
2023-02-11T06:15:06.481Z,100.00
2023-02-11T06:15:38.208Z,100.00
2023-02-11T06:16:10.149Z,100.00
2023-02-11T06:16:41.581Z,100.00
2023-02-11T06:17:15.582Z,100.00
2023-02-11T06:17:47.411Z,100.00
2023-02-11T06:18:20.966Z,100.00
2023-02-11T06:18:52.410Z,100.00
2023-02-11T06:19:24.078Z,100.00
2023-02-11T06:20:14.128Z,100.00
2023-02-11T06:20:45.831Z,100.00
2023-02-11T06:21:17.429Z,100.00
2023-02-11T06:21:49.166Z,100.00
2023-02-11T06:22:21.033Z,100.00
2023-02-11T06:23:42.098Z,100.00
2023-02-11T06:24:13.574Z,100.00
2023-02-11T06:25:00.408Z,100.00
2023-02-11T06:25:35.612Z,100.00
2023-02-11T06:26:09.403Z,100.00
2023-02-11T06:26:41.073Z,100.00
2023-02-11T06:27:12.652Z,100.00
2023-02-11T06:27:44.227Z,100.00
2023-02-11T06:28:21.582Z,100.00
2023-02-11T06:28:55.357Z,100.00
2023-02-11T06:29:29.846Z,100.00
2023-02-11T06:30:01.519Z,100.00
2023-02-11T06:30:33.549Z,100.00
2023-02-11T06:31:06.927Z,100.00
2023-02-11T06:31:39.541Z,100.00
2023-02-11T06:32:27.815Z,100.00
2023-02-11T06:33:02.801Z,100.00
2023-02-11T06:33:35.282Z,100.00
2023-02-11T06:34:08.417Z,100.00
2023-02-11T06:34:40.073Z,100.00
2023-02-11T06:35:14.153Z,100.00
2023-02-11T06:35:45.689Z,100.00
2023-02-11T06:36:19.439Z,100.00
2023-02-11T06:36:53.202Z,100.00
2023-02-11T06:37:24.640Z,100.00
2023-02-11T06:37:56.149Z,100.00
2023-02-11T06:38:29.814Z,100.00
2023-02-11T06:39:01.504Z,100.00
2023-02-11T06:39:33.417Z,100.00
2023-02-11T06:40:05.229Z,100.00
2023-02-11T06:40:41.632Z,100.00
2023-02-11T06:41:15.741Z,100.00
2023-02-11T06:41:47.373Z,100.00
2023-02-11T06:42:18.825Z,100.00
2023-02-11T06:42:50.251Z,100.00
2023-02-11T06:43:23.043Z,100.00
2023-02-11T06:43:54.908Z,100.00
2023-02-11T06:44:28.778Z,100.00
2023-02-11T06:45:00.435Z,100.00
2023-02-11T06:45:31.963Z,100.00
2023-02-11T06:46:04.801Z,100.00
2023-02-11T06:46:42.062Z,100.00
2023-02-11T06:47:13.669Z,100.00
2023-02-11T06:47:45.198Z,100.00
2023-02-11T06:48:19.688Z,100.00
2023-02-11T06:48:51.179Z,100.00
2023-02-11T06:49:22.613Z,100.00
2023-02-11T06:49:56.679Z,100.00
2023-02-11T06:50:31.037Z,100.00
2023-02-11T06:51:08.226Z,100.00
2023-02-11T06:51:43.062Z,100.00
2023-02-11T06:52:17.532Z,100.00
2023-02-11T06:52:48.998Z,100.00
2023-02-11T06:53:20.515Z,100.00
2023-02-11T06:54:41.000Z,100.00
2023-02-11T06:55:12.354Z,100.00
2023-02-11T06:55:43.734Z,100.00
2023-02-11T06:56:20.426Z,100.00
2023-02-11T06:56:52.091Z,100.00
2023-02-11T06:57:25.804Z,100.00
2023-02-11T06:57:59.840Z,100.00
2023-02-11T06:58:37.407Z,100.00
2023-02-11T06:59:09.138Z,100.00
2023-02-11T06:59:41.165Z,100.00
2023-02-11T07:00:13.460Z,100.00
2023-02-11T07:00:47.920Z,100.00
2023-02-11T07:01:19.469Z,100.00
2023-02-11T07:01:51.085Z,100.00
2023-02-11T07:02:22.668Z,100.00
2023-02-11T07:02:54.358Z,100.00
2023-02-11T07:03:26.213Z,100.00
2023-02-11T07:03:57.693Z,100.00
2023-02-11T07:04:29.429Z,100.00
2023-02-11T07:05:01.335Z,100.00
2023-02-11T07:05:34.276Z,100.00
2023-02-11T07:06:09.861Z,100.00
2023-02-11T07:06:42.580Z,100.00
2023-02-11T07:07:21.455Z,100.00
2023-02-11T07:07:53.283Z,100.00
2023-02-11T07:08:24.950Z,100.00
2023-02-11T07:08:58.500Z,100.00
2023-02-11T07:09:30.371Z,100.00
2023-02-11T07:10:04.051Z,100.00
2023-02-11T07:10:38.005Z,100.00
2023-02-11T07:11:18.213Z,100.00
2023-02-11T07:11:49.641Z,100.00
2023-02-11T07:12:21.069Z,100.00
2023-02-11T07:12:54.623Z,100.00
2023-02-11T07:13:27.439Z,100.00
2023-02-11T07:14:08.508Z,100.00
2023-02-11T07:14:42.378Z,100.00
2023-02-11T07:15:14.088Z,100.00
2023-02-11T07:15:46.231Z,100.00
2023-02-11T07:16:19.157Z,100.00
2023-02-11T07:16:50.883Z,100.00
2023-02-11T07:17:22.724Z,100.00
2023-02-11T07:17:54.326Z,100.00
2023-02-11T07:18:25.810Z,100.00
2023-02-11T07:18:57.707Z,100.00
2023-02-11T07:19:29.355Z,100.00
2023-02-11T07:20:06.728Z,100.00
2023-02-11T07:20:40.865Z,100.00
2023-02-11T07:21:16.807Z,100.00
2023-02-11T07:21:48.940Z,100.00
2023-02-11T07:22:20.520Z,100.00
2023-02-11T07:22:52.357Z,100.00
2023-02-11T07:23:24.118Z,100.00
2023-02-11T07:23:55.568Z,100.00
2023-02-11T07:24:27.234Z,100.00
2023-02-11T07:24:58.831Z,100.00
2023-02-11T07:25:30.693Z,100.00
2023-02-11T07:26:06.851Z,100.00
2023-02-11T07:26:39.963Z,100.00
2023-02-11T07:27:13.804Z,100.00
2023-02-11T07:27:45.310Z,100.00
2023-02-11T07:28:16.893Z,100.00
2023-02-11T07:28:49.925Z,100.00
2023-02-11T07:29:21.517Z,100.00
2023-02-11T07:29:53.051Z,100.00
2023-02-11T07:30:24.699Z,100.00
2023-02-11T07:30:56.308Z,100.00
2023-02-11T07:31:29.820Z,100.00
2023-02-11T07:32:01.350Z,100.00
2023-02-11T07:32:32.797Z,100.00
2023-02-11T07:33:04.612Z,100.00
2023-02-11T07:33:37.136Z,100.00
2023-02-11T07:34:13.448Z,100.00
2023-02-11T07:34:45.509Z,100.00
2023-02-11T07:35:17.096Z,100.00
2023-02-11T07:35:48.996Z,100.00
2023-02-11T07:36:21.514Z,100.00
2023-02-11T07:36:58.590Z,100.00
2023-02-11T07:37:32.308Z,100.00
2023-02-11T07:38:03.859Z,100.00